createdAt,value
2023-01-20T00:01:37.926Z,14.80
2023-01-20T00:04:05.787Z,13.90
2023-01-20T00:06:33.677Z,14.32
2023-01-20T00:09:03.058Z,15.63
2023-01-20T00:11:31.166Z,21.05
2023-01-20T00:14:01.680Z,18.48
2023-01-20T00:16:32.044Z,14.38
2023-01-20T00:18:59.824Z,13.55
2023-01-20T00:21:27.558Z,15.10
2023-01-20T00:23:55.140Z,15.63
2023-01-20T00:26:24.623Z,15.27
2023-01-20T00:28:57.831Z,15.35
2023-01-20T00:31:27.881Z,14.32
2023-01-20T00:33:57.971Z,14.18
2023-01-20T00:36:27.467Z,13.63
2023-01-20T00:38:55.186Z,13.23
2023-01-20T00:41:22.988Z,13.40
2023-01-20T00:43:50.579Z,13.45
2023-01-20T00:46:18.375Z,14.02
2023-01-20T00:48:45.895Z,13.88
2023-01-20T00:51:13.459Z,13.88
2023-01-20T00:53:45.357Z,13.40
2023-01-20T00:56:13.297Z,14.50
2023-01-20T00:58:48.091Z,14.00
2023-01-20T01:01:15.814Z,12.88
2023-01-20T01:03:44.551Z,12.63
2023-01-20T01:06:15.448Z,14.20
2023-01-20T01:08:44.189Z,14.02
2023-01-20T01:11:13.076Z,13.82
2023-01-20T01:13:41.016Z,13.43
2023-01-20T01:16:14.310Z,14.80
2023-01-20T01:18:42.971Z,13.70
2023-01-20T01:21:14.339Z,13.88
2023-01-20T01:23:42.491Z,13.63
2023-01-20T01:26:10.555Z,14.38
2023-01-20T01:28:38.095Z,13.13
2023-01-20T01:31:08.392Z,13.52
2023-01-20T01:33:36.513Z,13.07
2023-01-20T01:36:04.665Z,13.48
2023-01-20T01:38:33.153Z,13.00
2023-01-20T01:41:01.617Z,13.60
2023-01-20T01:43:32.322Z,12.50
2023-01-20T01:46:00.233Z,13.55
2023-01-20T01:48:30.425Z,13.00
2023-01-20T01:51:01.212Z,14.15
2023-01-20T01:53:32.539Z,13.85
2023-01-20T01:56:02.895Z,12.32
2023-01-20T01:58:34.841Z,14.35
2023-01-20T02:01:02.639Z,13.18
2023-01-20T02:03:40.193Z,14.02
2023-01-20T02:06:09.166Z,14.18
2023-01-20T02:08:37.589Z,13.18
2023-01-20T02:11:05.268Z,14.05
2023-01-20T02:13:34.012Z,12.77
2023-01-20T02:16:38.343Z,13.10
2023-01-20T02:19:21.141Z,14.05
2023-01-20T02:22:25.421Z,13.70
2023-01-20T02:25:11.001Z,13.05
2023-01-20T02:28:16.814Z,13.45
2023-01-20T02:31:02.915Z,13.02
2023-01-20T02:33:45.466Z,12.70
2023-01-20T02:36:22.474Z,31.20
2023-01-20T02:39:13.697Z,15.38
2023-01-20T02:42:11.708Z,12.70
2023-01-20T02:44:59.383Z,12.52
2023-01-20T02:47:41.421Z,13.23
2023-01-20T02:50:40.848Z,12.50
2023-01-20T02:53:09.535Z,11.63
2023-01-20T02:55:47.430Z,11.07
2023-01-20T02:58:59.184Z,11.32
2023-01-20T03:01:54.160Z,11.13
2023-01-20T03:04:33.762Z,12.00
2023-01-20T03:07:03.711Z,10.95
2023-01-20T03:09:37.679Z,11.65
2023-01-20T03:12:14.108Z,11.43
2023-01-20T03:14:41.627Z,12.00
2023-01-20T03:17:09.405Z,11.20
2023-01-20T03:19:37.083Z,10.35
2023-01-20T03:22:04.923Z,12.18
2023-01-20T03:24:33.673Z,10.77
2023-01-20T03:27:01.397Z,10.63
2023-01-20T03:29:30.693Z,11.73
2023-01-20T03:32:01.076Z,11.23
2023-01-20T03:34:32.080Z,11.05
2023-01-20T03:37:01.067Z,11.63
2023-01-20T03:39:29.000Z,12.60
2023-01-20T03:42:08.244Z,13.27
2023-01-20T03:45:00.032Z,11.88
2023-01-20T03:47:58.696Z,12.75
2023-01-20T03:50:47.817Z,12.90
2023-01-20T03:53:37.529Z,11.65
2023-01-20T03:58:44.417Z,12.93
2023-01-20T04:01:17.356Z,13.27
2023-01-20T04:03:51.419Z,12.65
2023-01-20T04:06:21.573Z,12.23
2023-01-20T04:08:58.656Z,12.63
2023-01-20T04:11:27.292Z,13.00
2023-01-20T04:13:55.174Z,12.33
2023-01-20T04:16:24.475Z,12.80
2023-01-20T04:18:53.131Z,12.85
2023-01-20T04:21:41.986Z,11.40
2023-01-20T04:24:19.374Z,12.77
2023-01-20T04:26:47.052Z,15.82
2023-01-20T04:29:14.632Z,13.43
2023-01-20T04:31:42.304Z,13.77
2023-01-20T04:34:13.575Z,13.43
2023-01-20T04:36:41.727Z,21.58
2023-01-20T04:39:09.267Z,14.48
2023-01-20T04:41:36.863Z,13.73
2023-01-20T04:44:04.439Z,13.30
2023-01-20T04:46:32.108Z,15.18
2023-01-20T04:48:59.592Z,19.13
2023-01-20T04:51:27.206Z,14.63
2023-01-20T04:53:58.490Z,14.48
2023-01-20T04:56:26.555Z,14.02
2023-01-20T04:58:54.059Z,14.52
2023-01-20T05:01:21.817Z,12.57
2023-01-20T05:03:49.432Z,14.75
2023-01-20T05:06:18.881Z,13.68
2023-01-20T05:08:46.474Z,13.50
2023-01-20T05:11:14.035Z,12.82
2023-01-20T05:13:41.633Z,13.07
2023-01-20T05:16:10.293Z,12.75
2023-01-20T05:18:37.897Z,12.10
2023-01-20T05:21:07.987Z,12.52
2023-01-20T05:23:36.058Z,11.52
2023-01-20T05:26:03.648Z,12.25
2023-01-20T05:28:31.199Z,18.20
2023-01-20T05:30:58.832Z,16.42
2023-01-20T05:33:26.456Z,17.13
2023-01-20T05:35:55.997Z,20.30
2023-01-20T05:40:51.051Z,11.85
2023-01-20T05:43:18.518Z,12.73
2023-01-20T05:45:46.831Z,12.98
2023-01-20T05:48:14.379Z,13.02
2023-01-20T05:50:43.145Z,13.32
2023-01-20T05:53:10.650Z,13.33
2023-01-20T05:55:38.223Z,13.75
2023-01-20T05:58:06.602Z,12.90
2023-01-20T06:00:34.312Z,13.32
2023-01-20T06:03:02.242Z,14.68
2023-01-20T06:05:30.377Z,14.55
2023-01-20T06:07:58.819Z,13.52
2023-01-20T06:10:28.272Z,15.02
2023-01-20T06:12:56.236Z,14.80
2023-01-20T06:15:25.421Z,15.95
2023-01-20T06:17:55.019Z,15.68
2023-01-20T06:22:55.118Z,14.68
2023-01-20T06:25:22.784Z,15.82
2023-01-20T06:27:50.271Z,15.63
2023-01-20T06:30:18.165Z,17.23
2023-01-20T06:32:48.852Z,16.25
2023-01-20T06:35:16.962Z,16.80
2023-01-20T06:37:44.734Z,17.00
2023-01-20T06:40:12.807Z,15.48
2023-01-20T06:42:40.280Z,15.63
2023-01-20T06:45:08.648Z,17.17
2023-01-20T06:47:36.218Z,15.60
2023-01-20T06:50:04.031Z,15.52
2023-01-20T06:52:31.760Z,16.85
2023-01-20T06:54:59.315Z,16.25
2023-01-20T06:57:26.900Z,15.90
2023-01-20T06:59:54.439Z,17.50
2023-01-20T07:02:21.967Z,16.40
2023-01-20T07:04:52.651Z,17.77
2023-01-20T07:07:20.187Z,16.35
2023-01-20T07:09:48.101Z,15.77
2023-01-20T07:12:15.666Z,14.68
2023-01-20T07:14:43.167Z,14.90
2023-01-20T07:17:12.614Z,14.43
2023-01-20T07:19:40.142Z,14.93
2023-01-20T07:22:07.659Z,13.68
2023-01-20T07:24:35.255Z,14.30
2023-01-20T07:27:02.817Z,13.35
2023-01-20T07:29:30.392Z,13.15
2023-01-20T11:19:11.348Z,13.48
2023-01-20T11:21:40.279Z,13.07
2023-01-20T11:24:31.167Z,13.87
2023-01-20T11:27:07.297Z,13.25
2023-01-20T11:29:42.676Z,12.93
2023-01-20T11:32:32.572Z,12.43
2023-01-20T11:40:20.264Z,12.63
2023-01-20T11:42:49.662Z,13.43
2023-01-20T11:45:34.553Z,13.35
2023-01-20T11:48:03.955Z,12.63
2023-01-20T11:50:34.536Z,13.43
2023-01-20T11:53:33.217Z,13.55
2023-01-20T11:56:24.864Z,13.75
2023-01-20T11:59:02.064Z,12.73
2023-01-20T12:01:50.740Z,12.07
2023-01-20T12:04:49.251Z,12.20
2023-01-20T12:07:26.070Z,12.30
2023-01-20T12:09:59.698Z,12.50
2023-01-20T12:13:16.192Z,11.27
2023-01-20T12:15:54.847Z,11.63
2023-01-20T12:19:04.846Z,11.52
2023-01-20T12:21:41.291Z,10.98
2023-01-20T12:24:38.701Z,12.38
2023-01-20T12:27:20.942Z,11.77
2023-01-20T12:29:52.080Z,11.82
2023-01-20T12:32:20.046Z,11.30
2023-01-20T12:34:47.744Z,11.70
2023-01-20T12:37:27.401Z,10.93
2023-01-20T12:40:36.904Z,11.50
2023-01-20T12:43:17.073Z,12.35
2023-01-20T12:45:59.760Z,11.00
2023-01-20T12:48:54.527Z,11.07
2023-01-20T12:51:33.950Z,10.85
2023-01-20T12:54:47.872Z,11.50
2023-01-20T12:57:34.835Z,11.18
2023-01-20T13:00:40.780Z,10.93
2023-01-20T13:03:27.546Z,11.15
2023-01-20T13:06:36.115Z,10.23
2023-01-20T13:09:22.733Z,11.30
2023-01-20T13:12:13.967Z,11.85
2023-01-20T13:15:04.533Z,11.60
2023-01-20T13:17:40.617Z,10.30
2023-01-20T13:20:28.106Z,10.63
2023-01-20T13:22:58.608Z,10.73
2023-01-20T13:25:27.474Z,11.30
2023-01-20T13:27:55.692Z,11.68
2023-01-20T13:30:43.165Z,10.70
2023-01-20T13:33:29.244Z,10.40
2023-01-20T13:35:59.791Z,10.75
2023-01-20T13:38:36.008Z,11.85
2023-01-20T13:41:06.179Z,10.80
2023-01-20T13:43:53.310Z,11.95
2023-01-20T13:46:21.349Z,11.07
2023-01-20T13:49:59.978Z,10.98
2023-01-20T13:52:51.096Z,10.82
2023-01-20T13:55:44.089Z,10.70
2023-01-20T13:58:23.982Z,11.52
2023-01-20T14:00:54.542Z,11.55
2023-01-20T14:03:30.760Z,11.18
2023-01-20T14:06:21.012Z,11.52
2023-01-20T14:08:50.872Z,10.98
2023-01-20T14:11:26.698Z,12.68
2023-01-20T14:14:03.109Z,11.32
2023-01-20T14:16:34.810Z,11.88
2023-01-20T14:19:18.796Z,11.57
2023-01-20T14:21:54.789Z,11.48
2023-01-20T14:24:29.359Z,12.65
2023-01-20T14:27:27.319Z,11.27
2023-01-20T14:29:57.655Z,12.07
2023-01-20T14:32:34.253Z,12.35
2023-01-20T14:35:04.680Z,12.90
2023-01-20T14:37:36.031Z,11.68
2023-01-20T14:40:26.313Z,12.68
2023-01-20T14:43:19.832Z,11.93
2023-01-20T14:45:51.777Z,12.27
2023-01-20T14:48:34.052Z,12.50
2023-01-20T14:51:06.148Z,12.82
2023-01-20T14:53:34.025Z,13.65
2023-01-20T14:56:07.927Z,12.63
2023-01-20T14:58:36.585Z,14.05
2023-01-20T15:01:06.958Z,14.18
2023-01-20T15:03:34.781Z,15.15
2023-01-20T15:06:05.902Z,15.43
2023-01-20T15:08:37.542Z,17.60
2023-01-20T15:11:12.384Z,16.75
2023-01-20T15:14:08.708Z,17.42
2023-01-20T15:16:37.388Z,17.88
2023-01-20T15:19:17.535Z,18.25
2023-01-20T15:25:38.671Z,18.10
2023-01-20T15:28:06.270Z,18.58
2023-01-20T15:30:35.431Z,18.60
2023-01-20T15:33:03.360Z,17.85
2023-01-20T15:35:33.248Z,18.20
2023-01-20T15:38:11.841Z,17.55
2023-01-20T15:40:39.777Z,18.42
2023-01-20T15:43:25.624Z,17.70
2023-01-20T15:45:53.651Z,18.20
2023-01-20T15:48:21.804Z,17.85
2023-01-20T15:50:49.538Z,17.85
2023-01-20T15:53:17.273Z,18.48
2023-01-20T15:55:49.313Z,18.88
2023-01-20T15:58:29.759Z,17.50
2023-01-20T16:01:00.376Z,16.88
2023-01-20T16:03:28.587Z,17.25
2023-01-20T16:05:58.948Z,19.67
2023-01-20T16:08:35.518Z,17.70
2023-01-20T16:11:04.356Z,17.75
2023-01-20T16:13:32.158Z,18.00
2023-01-20T16:16:01.393Z,17.33
2023-01-20T16:18:30.336Z,19.17
2023-01-20T16:20:58.122Z,17.93
2023-01-20T16:23:25.748Z,17.58
2023-01-20T16:25:54.914Z,17.00
2023-01-20T16:28:24.311Z,17.65
2023-01-20T16:33:25.094Z,15.05
2023-01-20T16:35:55.556Z,16.52
2023-01-20T16:38:25.200Z,15.90
2023-01-20T16:40:57.642Z,14.60
2023-01-20T16:43:25.970Z,14.48
2023-01-20T16:45:55.521Z,15.02
2023-01-20T16:50:53.235Z,14.97
2023-01-20T16:53:21.158Z,14.30
2023-01-20T16:55:49.434Z,12.93
2023-01-20T16:58:17.316Z,14.02
2023-01-20T17:00:44.947Z,14.27
2023-01-20T17:03:12.908Z,14.55
2023-01-20T22:05:25.291Z,8.60
2023-01-20T22:07:53.080Z,8.63
2023-01-20T22:10:21.196Z,8.40
2023-01-20T22:12:50.500Z,9.27
2023-01-20T22:15:18.908Z,8.20
2023-01-20T22:17:48.067Z,7.87
2023-01-20T22:20:17.216Z,9.00
2023-01-20T22:22:46.258Z,8.40
2023-01-20T22:25:15.217Z,8.57
2023-01-20T22:27:44.141Z,8.45
2023-01-20T22:30:19.050Z,7.70
2023-01-20T22:35:39.307Z,8.43
2023-01-20T22:38:08.325Z,8.30
2023-01-20T22:40:38.039Z,8.63
2023-01-20T22:43:07.527Z,8.45
2023-01-20T22:45:49.048Z,8.10
2023-01-20T22:48:19.310Z,8.10
2023-01-20T22:50:49.364Z,7.82
2023-01-20T22:56:32.596Z,8.13
2023-01-20T22:59:01.722Z,7.57
2023-01-20T23:01:34.662Z,7.05
2023-01-20T23:04:32.790Z,7.85
2023-01-20T23:07:02.278Z,6.95
2023-01-20T23:09:34.032Z,15.32
2023-01-20T23:12:03.073Z,7.47
2023-01-20T23:14:50.589Z,6.65
2023-01-20T23:17:19.351Z,6.35
2023-01-20T23:19:53.920Z,7.10
2023-01-20T23:22:24.192Z,7.47
2023-01-20T23:24:52.736Z,6.20
2023-01-20T23:27:22.116Z,6.20
2023-01-20T23:29:52.726Z,7.65
2023-01-20T23:32:21.851Z,6.85
2023-01-20T23:34:50.962Z,9.63
2023-01-20T23:37:19.605Z,5.90
2023-01-20T23:39:52.484Z,6.75
2023-01-20T23:42:21.808Z,6.05
2023-01-20T23:44:51.296Z,5.50
2023-01-20T23:49:48.247Z,5.18
2023-01-20T23:52:17.012Z,5.68
2023-01-20T23:54:45.625Z,6.53
2023-01-20T23:57:14.471Z,5.93
2023-01-20T23:59:42.889Z,5.43
